sensor_id;sensor_type;location;lat;lon;timestamp;temperature;humidity
73777;DHT22;62088;50.240;2.696;2023-04-25T00:00:15;10.10;77.00
73777;DHT22;62088;50.240;2.696;2023-04-25T00:02:43;10.10;77.00
73777;DHT22;62088;50.240;2.696;2023-04-25T00:05:10;10.10;77.00
73777;DHT22;62088;50.240;2.696;2023-04-25T00:07:38;10.00;77.10
73777;DHT22;62088;50.240;2.696;2023-04-25T00:10:06;10.00;77.20
73777;DHT22;62088;50.240;2.696;2023-04-25T00:12:33;10.00;77.20
73777;DHT22;62088;50.240;2.696;2023-04-25T00:15:00;9.90;77.20
73777;DHT22;62088;50.240;2.696;2023-04-25T00:17:27;9.90;77.20
73777;DHT22;62088;50.240;2.696;2023-04-25T00:19:55;9.90;77.30
73777;DHT22;62088;50.240;2.696;2023-04-25T00:22:22;9.90;77.30
73777;DHT22;62088;50.240;2.696;2023-04-25T00:24:49;9.90;77.20
73777;DHT22;62088;50.240;2.696;2023-04-25T00:27:17;9.80;77.20
73777;DHT22;62088;50.240;2.696;2023-04-25T00:29:44;9.80;77.20
73777;DHT22;62088;50.240;2.696;2023-04-25T00:32:12;9.70;77.20
73777;DHT22;62088;50.240;2.696;2023-04-25T00:34:39;9.70;77.30
73777;DHT22;62088;50.240;2.696;2023-04-25T00:37:06;9.70;77.40
73777;DHT22;62088;50.240;2.696;2023-04-25T00:39:33;9.70;77.40
73777;DHT22;62088;50.240;2.696;2023-04-25T00:42:00;9.70;77.50
73777;DHT22;62088;50.240;2.696;2023-04-25T00:44:30;9.70;77.60
73777;DHT22;62088;50.240;2.696;2023-04-25T00:47:00;9.70;77.60
73777;DHT22;62088;50.240;2.696;2023-04-25T00:49:28;9.70;77.70
73777;DHT22;62088;50.240;2.696;2023-04-25T00:51:56;9.70;77.70
73777;DHT22;62088;50.240;2.696;2023-04-25T00:54:23;9.70;77.80
73777;DHT22;62088;50.240;2.696;2023-04-25T00:56:51;9.70;77.80
73777;DHT22;62088;50.240;2.696;2023-04-25T00:59:19;9.70;77.90
73777;DHT22;62088;50.240;2.696;2023-04-25T01:01:47;9.70;77.90
73777;DHT22;62088;50.240;2.696;2023-04-25T01:04:14;9.70;78.00
73777;DHT22;62088;50.240;2.696;2023-04-25T01:06:41;9.70;78.00
73777;DHT22;62088;50.240;2.696;2023-04-25T01:09:09;9.70;78.10
73777;DHT22;62088;50.240;2.696;2023-04-25T01:11:36;9.60;78.20
73777;DHT22;62088;50.240;2.696;2023-04-25T01:14:03;9.70;78.20
73777;DHT22;62088;50.240;2.696;2023-04-25T01:16:31;9.70;78.20
73777;DHT22;62088;50.240;2.696;2023-04-25T01:19:00;9.60;78.20
73777;DHT22;62088;50.240;2.696;2023-04-25T01:21:27;9.60;78.20
73777;DHT22;62088;50.240;2.696;2023-04-25T01:23:56;9.60;78.20
73777;DHT22;62088;50.240;2.696;2023-04-25T01:26:24;9.60;78.20
73777;DHT22;62088;50.240;2.696;2023-04-25T01:28:51;9.60;78.20
73777;DHT22;62088;50.240;2.696;2023-04-25T01:31:19;9.60;78.20
73777;DHT22;62088;50.240;2.696;2023-04-25T01:33:47;9.50;78.30
73777;DHT22;62088;50.240;2.696;2023-04-25T01:36:15;9.50;78.40
73777;DHT22;62088;50.240;2.696;2023-04-25T01:38:42;9.50;78.40
73777;DHT22;62088;50.240;2.696;2023-04-25T01:41:10;9.50;78.40
73777;DHT22;62088;50.240;2.696;2023-04-25T01:43:38;9.40;78.40
73777;DHT22;62088;50.240;2.696;2023-04-25T01:46:05;9.50;78.50
73777;DHT22;62088;50.240;2.696;2023-04-25T01:48:32;9.50;78.60
73777;DHT22;62088;50.240;2.696;2023-04-25T01:50:59;9.40;78.70
73777;DHT22;62088;50.240;2.696;2023-04-25T01:53:28;9.40;78.70
73777;DHT22;62088;50.240;2.696;2023-04-25T01:55:55;9.40;78.80
73777;DHT22;62088;50.240;2.696;2023-04-25T01:58:24;9.40;78.90
73777;DHT22;62088;50.240;2.696;2023-04-25T02:01:04;9.40;79.00
73777;DHT22;62088;50.240;2.696;2023-04-25T02:03:39;9.40;79.00
73777;DHT22;62088;50.240;2.696;2023-04-25T02:06:12;9.40;79.00
73777;DHT22;62088;50.240;2.696;2023-04-25T02:08:43;9.40;79.00
73777;DHT22;62088;50.240;2.696;2023-04-25T02:11:11;9.30;79.10
73777;DHT22;62088;50.240;2.696;2023-04-25T02:13:45;9.30;79.10
73777;DHT22;62088;50.240;2.696;2023-04-25T02:16:31;9.30;79.20
73777;DHT22;62088;50.240;2.696;2023-04-25T02:19:00;9.40;79.30
73777;DHT22;62088;50.240;2.696;2023-04-25T02:21:29;9.40;79.30
73777;DHT22;62088;50.240;2.696;2023-04-25T02:23:57;9.30;79.40
73777;DHT22;62088;50.240;2.696;2023-04-25T02:26:27;9.30;79.40
73777;DHT22;62088;50.240;2.696;2023-04-25T02:28:54;9.30;79.40
73777;DHT22;62088;50.240;2.696;2023-04-25T02:31:21;9.30;79.40
73777;DHT22;62088;50.240;2.696;2023-04-25T02:33:50;9.30;79.50
73777;DHT22;62088;50.240;2.696;2023-04-25T02:36:17;9.30;79.40
73777;DHT22;62088;50.240;2.696;2023-04-25T02:38:44;9.20;79.40
73777;DHT22;62088;50.240;2.696;2023-04-25T02:41:11;9.30;79.40
73777;DHT22;62088;50.240;2.696;2023-04-25T02:43:38;9.20;79.30
73777;DHT22;62088;50.240;2.696;2023-04-25T02:46:06;9.20;79.20
73777;DHT22;62088;50.240;2.696;2023-04-25T02:48:33;9.20;79.10
73777;DHT22;62088;50.240;2.696;2023-04-25T02:51:00;9.20;79.10
73777;DHT22;62088;50.240;2.696;2023-04-25T02:53:27;9.20;79.10
73777;DHT22;62088;50.240;2.696;2023-04-25T02:55:54;9.10;79.00
73777;DHT22;62088;50.240;2.696;2023-04-25T02:58:21;9.10;79.00
73777;DHT22;62088;50.240;2.696;2023-04-25T03:00:51;9.10;78.90
73777;DHT22;62088;50.240;2.696;2023-04-25T03:03:18;9.00;78.90
73777;DHT22;62088;50.240;2.696;2023-04-25T03:05:50;9.00;78.90
73777;DHT22;62088;50.240;2.696;2023-04-25T03:08:22;9.00;78.80
73777;DHT22;62088;50.240;2.696;2023-04-25T03:10:49;8.90;78.80
73777;DHT22;62088;50.240;2.696;2023-04-25T03:13:18;8.90;78.80
73777;DHT22;62088;50.240;2.696;2023-04-25T03:15:45;8.90;78.80
73777;DHT22;62088;50.240;2.696;2023-04-25T03:18:12;8.90;78.70
73777;DHT22;62088;50.240;2.696;2023-04-25T03:20:40;8.80;78.70
73777;DHT22;62088;50.240;2.696;2023-04-25T03:23:08;8.80;78.80
73777;DHT22;62088;50.240;2.696;2023-04-25T03:25:36;8.80;78.90
73777;DHT22;62088;50.240;2.696;2023-04-25T03:28:03;8.70;79.00
73777;DHT22;62088;50.240;2.696;2023-04-25T03:30:31;8.70;79.10
73777;DHT22;62088;50.240;2.696;2023-04-25T03:32:59;8.70;79.10
73777;DHT22;62088;50.240;2.696;2023-04-25T03:35:26;8.70;79.10
73777;DHT22;62088;50.240;2.696;2023-04-25T03:37:53;8.70;79.10
73777;DHT22;62088;50.240;2.696;2023-04-25T03:40:26;8.70;79.10
73777;DHT22;62088;50.240;2.696;2023-04-25T03:43:16;8.60;79.20
73777;DHT22;62088;50.240;2.696;2023-04-25T03:45:51;8.60;79.20
73777;DHT22;62088;50.240;2.696;2023-04-25T03:48:20;8.60;79.20
73777;DHT22;62088;50.240;2.696;2023-04-25T03:50:54;8.60;79.20
73777;DHT22;62088;50.240;2.696;2023-04-25T03:53:21;8.60;79.10
73777;DHT22;62088;50.240;2.696;2023-04-25T03:56:07;8.60;79.10
73777;DHT22;62088;50.240;2.696;2023-04-25T03:58:36;8.50;79.10
73777;DHT22;62088;50.240;2.696;2023-04-25T04:01:04;8.50;79.20
73777;DHT22;62088;50.240;2.696;2023-04-25T04:03:37;8.50;79.20
73777;DHT22;62088;50.240;2.696;2023-04-25T04:06:05;8.50;79.20
73777;DHT22;62088;50.240;2.696;2023-04-25T04:08:37;8.50;79.20
73777;DHT22;62088;50.240;2.696;2023-04-25T04:11:04;8.50;79.20
73777;DHT22;62088;50.240;2.696;2023-04-25T04:13:32;8.50;79.10
73777;DHT22;62088;50.240;2.696;2023-04-25T04:16:00;8.50;79.10
73777;DHT22;62088;50.240;2.696;2023-04-25T04:18:27;8.50;79.10
73777;DHT22;62088;50.240;2.696;2023-04-25T04:20:56;8.50;79.10
73777;DHT22;62088;50.240;2.696;2023-04-25T04:23:26;8.50;79.00
73777;DHT22;62088;50.240;2.696;2023-04-25T04:25:55;8.40;79.00
73777;DHT22;62088;50.240;2.696;2023-04-25T04:28:43;8.40;79.00
73777;DHT22;62088;50.240;2.696;2023-04-25T04:31:39;8.40;79.00
73777;DHT22;62088;50.240;2.696;2023-04-25T04:34:06;8.40;79.00
73777;DHT22;62088;50.240;2.696;2023-04-25T04:36:34;8.40;79.00
73777;DHT22;62088;50.240;2.696;2023-04-25T04:39:01;8.40;79.00
73777;DHT22;62088;50.240;2.696;2023-04-25T04:41:36;8.40;79.00
73777;DHT22;62088;50.240;2.696;2023-04-25T04:44:26;8.40;78.90
73777;DHT22;62088;50.240;2.696;2023-04-25T04:47:13;8.40;78.90
73777;DHT22;62088;50.240;2.696;2023-04-25T04:50:01;8.40;78.80
73777;DHT22;62088;50.240;2.696;2023-04-25T04:52:48;8.40;78.90
73777;DHT22;62088;50.240;2.696;2023-04-25T04:55:33;8.40;78.90
73777;DHT22;62088;50.240;2.696;2023-04-25T04:58:22;8.40;79.00
73777;DHT22;62088;50.240;2.696;2023-04-25T05:01:12;8.40;79.00
73777;DHT22;62088;50.240;2.696;2023-04-25T05:03:59;8.40;79.10
73777;DHT22;62088;50.240;2.696;2023-04-25T05:06:44;8.40;79.10
73777;DHT22;62088;50.240;2.696;2023-04-25T05:09:29;8.30;79.10
73777;DHT22;62088;50.240;2.696;2023-04-25T05:12:19;8.30;79.10
73777;DHT22;62088;50.240;2.696;2023-04-25T05:14:55;8.30;79.20
73777;DHT22;62088;50.240;2.696;2023-04-25T05:17:57;8.30;79.30
73777;DHT22;62088;50.240;2.696;2023-04-25T05:20:37;8.30;79.40
73777;DHT22;62088;50.240;2.696;2023-04-25T05:23:23;8.30;79.40
73777;DHT22;62088;50.240;2.696;2023-04-25T05:26:05;8.30;79.50
73777;DHT22;62088;50.240;2.696;2023-04-25T05:28:55;8.30;79.50
73777;DHT22;62088;50.240;2.696;2023-04-25T05:31:48;8.30;79.50
73777;DHT22;62088;50.240;2.696;2023-04-25T05:34:16;8.30;79.50
73777;DHT22;62088;50.240;2.696;2023-04-25T05:36:52;8.30;79.50
73777;DHT22;62088;50.240;2.696;2023-04-25T05:39:19;8.30;79.60
73777;DHT22;62088;50.240;2.696;2023-04-25T05:42:10;8.30;79.60
73777;DHT22;62088;50.240;2.696;2023-04-25T05:44:49;8.30;79.60
73777;DHT22;62088;50.240;2.696;2023-04-25T05:47:32;8.30;79.70
73777;DHT22;62088;50.240;2.696;2023-04-25T05:50:20;8.30;79.70
73777;DHT22;62088;50.240;2.696;2023-04-25T05:52:58;8.30;79.70
73777;DHT22;62088;50.240;2.696;2023-04-25T05:55:31;8.30;79.60
73777;DHT22;62088;50.240;2.696;2023-04-25T05:58:00;8.30;79.60
73777;DHT22;62088;50.240;2.696;2023-04-25T06:00:27;8.30;79.60
73777;DHT22;62088;50.240;2.696;2023-04-25T06:02:55;8.30;79.70
73777;DHT22;62088;50.240;2.696;2023-04-25T06:05:23;8.30;79.70
73777;DHT22;62088;50.240;2.696;2023-04-25T06:07:50;8.30;79.80
73777;DHT22;62088;50.240;2.696;2023-04-25T06:10:18;8.30;79.80
73777;DHT22;62088;50.240;2.696;2023-04-25T06:12:46;8.30;79.80
73777;DHT22;62088;50.240;2.696;2023-04-25T06:15:16;8.30;79.80
73777;DHT22;62088;50.240;2.696;2023-04-25T06:17:55;8.30;79.90
73777;DHT22;62088;50.240;2.696;2023-04-25T06:20:22;8.30;79.90
73777;DHT22;62088;50.240;2.696;2023-04-25T06:22:53;8.30;79.80
73777;DHT22;62088;50.240;2.696;2023-04-25T06:25:26;8.30;79.60
73777;DHT22;62088;50.240;2.696;2023-04-25T06:27:54;8.30;79.50
73777;DHT22;62088;50.240;2.696;2023-04-25T06:30:21;8.30;79.50
73777;DHT22;62088;50.240;2.696;2023-04-25T06:32:57;8.30;79.50
73777;DHT22;62088;50.240;2.696;2023-04-25T06:35:25;8.30;79.50
73777;DHT22;62088;50.240;2.696;2023-04-25T06:37:52;8.30;79.50
73777;DHT22;62088;50.240;2.696;2023-04-25T06:40:21;8.30;79.60
73777;DHT22;62088;50.240;2.696;2023-04-25T06:42:49;8.30;79.60
73777;DHT22;62088;50.240;2.696;2023-04-25T06:45:31;8.30;79.60
73777;DHT22;62088;50.240;2.696;2023-04-25T06:47:59;8.30;79.70
73777;DHT22;62088;50.240;2.696;2023-04-25T06:50:26;8.30;79.70
73777;DHT22;62088;50.240;2.696;2023-04-25T06:52:53;8.40;79.60
73777;DHT22;62088;50.240;2.696;2023-04-25T06:55:21;8.40;79.60
73777;DHT22;62088;50.240;2.696;2023-04-25T06:58:02;8.40;79.50
73777;DHT22;62088;50.240;2.696;2023-04-25T07:00:49;8.40;79.40
73777;DHT22;62088;50.240;2.696;2023-04-25T07:03:18;8.40;79.30
73777;DHT22;62088;50.240;2.696;2023-04-25T07:05:46;8.40;79.40
73777;DHT22;62088;50.240;2.696;2023-04-25T07:08:13;8.40;79.30
73777;DHT22;62088;50.240;2.696;2023-04-25T07:10:41;8.40;79.30
73777;DHT22;62088;50.240;2.696;2023-04-25T07:13:08;8.40;79.30
73777;DHT22;62088;50.240;2.696;2023-04-25T07:15:35;8.40;79.30
73777;DHT22;62088;50.240;2.696;2023-04-25T07:18:02;8.40;79.20
73777;DHT22;62088;50.240;2.696;2023-04-25T07:20:29;8.40;79.20
73777;DHT22;62088;50.240;2.696;2023-04-25T07:22:57;8.50;79.10
73777;DHT22;62088;50.240;2.696;2023-04-25T07:25:25;8.50;79.00
73777;DHT22;62088;50.240;2.696;2023-04-25T07:27:52;8.50;79.10
73777;DHT22;62088;50.240;2.696;2023-04-25T07:30:20;8.50;79.10
73777;DHT22;62088;50.240;2.696;2023-04-25T07:32:48;8.50;79.00
73777;DHT22;62088;50.240;2.696;2023-04-25T07:35:15;8.60;79.10
73777;DHT22;62088;50.240;2.696;2023-04-25T07:37:43;8.50;79.10
73777;DHT22;62088;50.240;2.696;2023-04-25T07:40:17;8.60;79.00
73777;DHT22;62088;50.240;2.696;2023-04-25T07:42:54;8.70;78.90
73777;DHT22;62088;50.240;2.696;2023-04-25T07:45:28;8.70;78.80
73777;DHT22;62088;50.240;2.696;2023-04-25T07:47:55;8.70;78.90
73777;DHT22;62088;50.240;2.696;2023-04-25T07:50:23;8.80;79.00
73777;DHT22;62088;50.240;2.696;2023-04-25T07:52:50;8.80;79.00
73777;DHT22;62088;50.240;2.696;2023-04-25T07:55:26;8.90;79.00
73777;DHT22;62088;50.240;2.696;2023-04-25T07:58:07;8.90;78.80
73777;DHT22;62088;50.240;2.696;2023-04-25T08:00:37;8.90;78.60
73777;DHT22;62088;50.240;2.696;2023-04-25T08:03:23;9.00;78.10
73777;DHT22;62088;50.240;2.696;2023-04-25T08:05:52;9.00;77.90
73777;DHT22;62088;50.240;2.696;2023-04-25T08:08:20;9.00;77.80
73777;DHT22;62088;50.240;2.696;2023-04-25T08:10:47;9.00;77.70
73777;DHT22;62088;50.240;2.696;2023-04-25T08:13:16;9.00;77.70
73777;DHT22;62088;50.240;2.696;2023-04-25T08:15:44;9.10;77.60
73777;DHT22;62088;50.240;2.696;2023-04-25T08:18:11;9.10;77.60
73777;DHT22;62088;50.240;2.696;2023-04-25T08:20:42;9.20;77.60
73777;DHT22;62088;50.240;2.696;2023-04-25T08:23:10;9.20;77.60
73777;DHT22;62088;50.240;2.696;2023-04-25T08:26:00;9.30;77.60
73777;DHT22;62088;50.240;2.696;2023-04-25T08:28:28;9.30;77.30
73777;DHT22;62088;50.240;2.696;2023-04-25T08:30:58;9.40;77.10
73777;DHT22;62088;50.240;2.696;2023-04-25T08:33:32;9.40;77.00
73777;DHT22;62088;50.240;2.696;2023-04-25T08:36:25;9.40;76.70
73777;DHT22;62088;50.240;2.696;2023-04-25T08:39:17;9.40;76.40
73777;DHT22;62088;50.240;2.696;2023-04-25T08:42:02;9.40;76.30
73777;DHT22;62088;50.240;2.696;2023-04-25T08:44:35;9.40;76.20
73777;DHT22;62088;50.240;2.696;2023-04-25T08:47:03;9.50;76.10
73777;DHT22;62088;50.240;2.696;2023-04-25T08:49:38;9.50;76.00
73777;DHT22;62088;50.240;2.696;2023-04-25T08:52:08;9.50;75.60
73777;DHT22;62088;50.240;2.696;2023-04-25T08:54:38;9.50;75.40
73777;DHT22;62088;50.240;2.696;2023-04-25T08:57:11;9.60;75.30
73777;DHT22;62088;50.240;2.696;2023-04-25T08:59:39;9.60;74.70
73777;DHT22;62088;50.240;2.696;2023-04-25T09:02:09;9.60;74.40
73777;DHT22;62088;50.240;2.696;2023-04-25T09:04:43;9.70;74.50
73777;DHT22;62088;50.240;2.696;2023-04-25T09:07:10;9.80;74.70
73777;DHT22;62088;50.240;2.696;2023-04-25T09:09:38;9.80;74.40
73777;DHT22;62088;50.240;2.696;2023-04-25T09:12:06;9.90;74.00
73777;DHT22;62088;50.240;2.696;2023-04-25T09:14:33;10.00;73.80
73777;DHT22;62088;50.240;2.696;2023-04-25T09:17:08;10.10;73.60
73777;DHT22;62088;50.240;2.696;2023-04-25T09:19:47;10.20;73.30
73777;DHT22;62088;50.240;2.696;2023-04-25T09:22:19;10.30;73.10
73777;DHT22;62088;50.240;2.696;2023-04-25T09:24:49;10.40;73.10
73777;DHT22;62088;50.240;2.696;2023-04-25T09:27:20;10.50;73.30
73777;DHT22;62088;50.240;2.696;2023-04-25T09:30:01;10.60;73.30
73777;DHT22;62088;50.240;2.696;2023-04-25T09:32:43;10.80;72.90
73777;DHT22;62088;50.240;2.696;2023-04-25T09:35:10;10.90;72.60
73777;DHT22;62088;50.240;2.696;2023-04-25T09:37:40;11.10;72.30
73777;DHT22;62088;50.240;2.696;2023-04-25T09:40:46;11.20;71.90
73777;DHT22;62088;50.240;2.696;2023-04-25T09:43:25;11.30;71.40
73777;DHT22;62088;50.240;2.696;2023-04-25T09:45:54;11.40;71.00
73777;DHT22;62088;50.240;2.696;2023-04-25T09:48:27;11.50;70.40
73777;DHT22;62088;50.240;2.696;2023-04-25T09:51:03;11.50;69.80
73777;DHT22;62088;50.240;2.696;2023-04-25T09:53:33;11.50;68.30
73777;DHT22;62088;50.240;2.696;2023-04-25T09:56:12;11.50;68.10
73777;DHT22;62088;50.240;2.696;2023-04-25T09:58:41;11.40;68.10
73777;DHT22;62088;50.240;2.696;2023-04-25T10:01:10;11.40;67.90
73777;DHT22;62088;50.240;2.696;2023-04-25T10:03:50;11.30;68.10
73777;DHT22;62088;50.240;2.696;2023-04-25T10:06:37;11.30;68.40
73777;DHT22;62088;50.240;2.696;2023-04-25T10:09:05;11.20;68.50
73777;DHT22;62088;50.240;2.696;2023-04-25T10:11:35;11.10;68.00
73777;DHT22;62088;50.240;2.696;2023-04-25T10:14:03;11.00;67.80
73777;DHT22;62088;50.240;2.696;2023-04-25T10:16:31;11.00;67.80
73777;DHT22;62088;50.240;2.696;2023-04-25T10:18:59;10.90;67.20
73777;DHT22;62088;50.240;2.696;2023-04-25T10:21:29;11.00;66.70
73777;DHT22;62088;50.240;2.696;2023-04-25T10:24:00;10.90;66.50
73777;DHT22;62088;50.240;2.696;2023-04-25T10:26:27;10.90;66.60
73777;DHT22;62088;50.240;2.696;2023-04-25T10:29:01;10.90;66.90
73777;DHT22;62088;50.240;2.696;2023-04-25T10:31:32;11.00;66.10
73777;DHT22;62088;50.240;2.696;2023-04-25T10:34:00;11.10;65.40
73777;DHT22;62088;50.240;2.696;2023-04-25T10:36:31;11.10;65.40
73777;DHT22;62088;50.240;2.696;2023-04-25T10:39:03;11.20;64.20
73777;DHT22;62088;50.240;2.696;2023-04-25T10:41:46;11.30;63.20
73777;DHT22;62088;50.240;2.696;2023-04-25T10:44:14;11.40;64.10
73777;DHT22;62088;50.240;2.696;2023-04-25T10:46:44;11.50;62.60
73777;DHT22;62088;50.240;2.696;2023-04-25T10:49:29;11.70;63.00
73777;DHT22;62088;50.240;2.696;2023-04-25T10:52:24;11.80;61.90
73777;DHT22;62088;50.240;2.696;2023-04-25T10:54:54;11.90;61.40
73777;DHT22;62088;50.240;2.696;2023-04-25T10:57:28;11.90;62.00
73777;DHT22;62088;50.240;2.696;2023-04-25T11:00:07;11.90;62.90
73777;DHT22;62088;50.240;2.696;2023-04-25T11:02:57;11.90;62.70
73777;DHT22;62088;50.240;2.696;2023-04-25T11:05:37;11.90;62.90
73777;DHT22;62088;50.240;2.696;2023-04-25T11:08:33;11.90;63.30
73777;DHT22;62088;50.240;2.696;2023-04-25T11:11:04;11.90;63.70
73777;DHT22;62088;50.240;2.696;2023-04-25T11:13:31;11.90;64.30
73777;DHT22;62088;50.240;2.696;2023-04-25T11:15:58;11.90;64.50
73777;DHT22;62088;50.240;2.696;2023-04-25T11:18:41;11.90;64.20
73777;DHT22;62088;50.240;2.696;2023-04-25T11:21:09;11.90;63.60
73777;DHT22;62088;50.240;2.696;2023-04-25T11:23:36;11.90;63.20
73777;DHT22;62088;50.240;2.696;2023-04-25T11:26:06;11.90;63.30
73777;DHT22;62088;50.240;2.696;2023-04-25T11:28:34;11.90;63.70
73777;DHT22;62088;50.240;2.696;2023-04-25T11:31:02;12.00;63.80
73777;DHT22;62088;50.240;2.696;2023-04-25T11:33:31;12.10;63.50
73777;DHT22;62088;50.240;2.696;2023-04-25T11:35:58;12.20;62.80
73777;DHT22;62088;50.240;2.696;2023-04-25T11:38:25;12.30;61.20
73777;DHT22;62088;50.240;2.696;2023-04-25T11:40:56;12.40;61.50
73777;DHT22;62088;50.240;2.696;2023-04-25T11:43:23;12.50;61.40
73777;DHT22;62088;50.240;2.696;2023-04-25T11:45:50;12.70;61.00
73777;DHT22;62088;50.240;2.696;2023-04-25T11:48:19;12.80;61.00
73777;DHT22;62088;50.240;2.696;2023-04-25T11:50:53;12.90;60.30
73777;DHT22;62088;50.240;2.696;2023-04-25T11:53:20;13.10;61.10
73777;DHT22;62088;50.240;2.696;2023-04-25T11:55:47;13.30;59.80
73777;DHT22;62088;50.240;2.696;2023-04-25T11:58:14;13.50;58.50
73777;DHT22;62088;50.240;2.696;2023-04-25T12:00:42;13.60;58.20
73777;DHT22;62088;50.240;2.696;2023-04-25T12:03:17;13.90;58.00
73777;DHT22;62088;50.240;2.696;2023-04-25T12:05:45;13.90;57.90
73777;DHT22;62088;50.240;2.696;2023-04-25T12:08:14;14.00;57.80
73777;DHT22;62088;50.240;2.696;2023-04-25T12:10:44;14.10;56.60
73777;DHT22;62088;50.240;2.696;2023-04-25T12:13:23;14.20;56.00
73777;DHT22;62088;50.240;2.696;2023-04-25T12:15:51;14.40;55.70
73777;DHT22;62088;50.240;2.696;2023-04-25T12:18:20;14.40;54.00
73777;DHT22;62088;50.240;2.696;2023-04-25T12:20:48;14.60;54.50
73777;DHT22;62088;50.240;2.696;2023-04-25T12:23:15;14.80;56.30
73777;DHT22;62088;50.240;2.696;2023-04-25T12:25:43;14.90;56.80
73777;DHT22;62088;50.240;2.696;2023-04-25T12:28:22;14.90;56.60
73777;DHT22;62088;50.240;2.696;2023-04-25T12:31:04;14.90;56.70
73777;DHT22;62088;50.240;2.696;2023-04-25T12:33:36;14.90;57.70
73777;DHT22;62088;50.240;2.696;2023-04-25T12:36:05;14.90;58.00
73777;DHT22;62088;50.240;2.696;2023-04-25T12:38:37;14.90;57.30
73777;DHT22;62088;50.240;2.696;2023-04-25T12:41:05;14.90;56.70
73777;DHT22;62088;50.240;2.696;2023-04-25T12:43:33;14.90;56.30
73777;DHT22;62088;50.240;2.696;2023-04-25T12:46:00;14.80;55.90
73777;DHT22;62088;50.240;2.696;2023-04-25T12:48:27;14.70;55.70
73777;DHT22;62088;50.240;2.696;2023-04-25T12:50:54;14.60;55.50
73777;DHT22;62088;50.240;2.696;2023-04-25T12:53:23;14.50;55.40
73777;DHT22;62088;50.240;2.696;2023-04-25T12:55:52;14.40;55.50
73777;DHT22;62088;50.240;2.696;2023-04-25T12:58:24;14.30;55.20
73777;DHT22;62088;50.240;2.696;2023-04-25T13:00:52;14.20;54.80
73777;DHT22;62088;50.240;2.696;2023-04-25T13:03:19;14.10;54.60
73777;DHT22;62088;50.240;2.696;2023-04-25T13:05:46;14.10;54.60
73777;DHT22;62088;50.240;2.696;2023-04-25T13:08:14;14.10;55.00
73777;DHT22;62088;50.240;2.696;2023-04-25T13:10:41;14.10;55.60
73777;DHT22;62088;50.240;2.696;2023-04-25T13:13:08;14.20;56.10
73777;DHT22;62088;50.240;2.696;2023-04-25T13:15:36;14.20;56.30
73777;DHT22;62088;50.240;2.696;2023-04-25T13:18:04;14.20;56.50
73777;DHT22;62088;50.240;2.696;2023-04-25T13:20:32;14.20;56.60
73777;DHT22;62088;50.240;2.696;2023-04-25T13:22:59;14.20;56.60
73777;DHT22;62088;50.240;2.696;2023-04-25T13:25:28;14.10;56.60
73777;DHT22;62088;50.240;2.696;2023-04-25T13:27:55;14.10;56.60
73777;DHT22;62088;50.240;2.696;2023-04-25T13:30:22;14.10;56.60
73777;DHT22;62088;50.240;2.696;2023-04-25T13:32:49;13.90;56.60
73777;DHT22;62088;50.240;2.696;2023-04-25T13:35:16;13.90;56.60
73777;DHT22;62088;50.240;2.696;2023-04-25T13:37:43;13.90;56.70
73777;DHT22;62088;50.240;2.696;2023-04-25T13:40:11;13.80;56.70
73777;DHT22;62088;50.240;2.696;2023-04-25T13:42:38;13.70;56.00
73777;DHT22;62088;50.240;2.696;2023-04-25T13:45:07;13.60;56.20
73777;DHT22;62088;50.240;2.696;2023-04-25T13:47:34;13.60;56.60
73777;DHT22;62088;50.240;2.696;2023-04-25T13:50:02;13.60;57.00
73777;DHT22;62088;50.240;2.696;2023-04-25T13:52:30;13.50;57.30
73777;DHT22;62088;50.240;2.696;2023-04-25T13:54:58;13.50;57.10
73777;DHT22;62088;50.240;2.696;2023-04-25T13:57:25;13.50;57.00
73777;DHT22;62088;50.240;2.696;2023-04-25T13:59:52;13.50;56.60
73777;DHT22;62088;50.240;2.696;2023-04-25T14:02:20;13.50;56.10
73777;DHT22;62088;50.240;2.696;2023-04-25T14:04:47;13.50;55.70
73777;DHT22;62088;50.240;2.696;2023-04-25T14:07:15;13.50;55.90
73777;DHT22;62088;50.240;2.696;2023-04-25T14:09:46;13.50;56.10
73777;DHT22;62088;50.240;2.696;2023-04-25T14:12:13;13.50;56.40
73777;DHT22;62088;50.240;2.696;2023-04-25T14:14:40;13.50;56.80
73777;DHT22;62088;50.240;2.696;2023-04-25T14:17:08;13.50;57.20
73777;DHT22;62088;50.240;2.696;2023-04-25T14:19:35;13.50;57.40
73777;DHT22;62088;50.240;2.696;2023-04-25T14:22:04;13.50;57.30
73777;DHT22;62088;50.240;2.696;2023-04-25T14:24:31;13.40;56.60
73777;DHT22;62088;50.240;2.696;2023-04-25T14:26:58;13.40;56.40
73777;DHT22;62088;50.240;2.696;2023-04-25T14:29:25;13.40;56.50
73777;DHT22;62088;50.240;2.696;2023-04-25T14:31:54;13.40;56.50
73777;DHT22;62088;50.240;2.696;2023-04-25T14:34:21;13.40;56.40
73777;DHT22;62088;50.240;2.696;2023-04-25T14:36:48;13.40;56.80
73777;DHT22;62088;50.240;2.696;2023-04-25T14:39:15;13.40;57.40
73777;DHT22;62088;50.240;2.696;2023-04-25T14:41:43;13.40;57.60
73777;DHT22;62088;50.240;2.696;2023-04-25T14:44:10;13.40;57.60
73777;DHT22;62088;50.240;2.696;2023-04-25T14:46:39;13.50;58.10
73777;DHT22;62088;50.240;2.696;2023-04-25T14:49:06;13.60;58.10
73777;DHT22;62088;50.240;2.696;2023-04-25T14:51:34;13.70;57.70
73777;DHT22;62088;50.240;2.696;2023-04-25T14:54:01;13.80;57.60
73777;DHT22;62088;50.240;2.696;2023-04-25T14:56:29;13.90;57.40
73777;DHT22;62088;50.240;2.696;2023-04-25T14:58:56;13.90;56.30
73777;DHT22;62088;50.240;2.696;2023-04-25T15:01:23;14.10;56.10
73777;DHT22;62088;50.240;2.696;2023-04-25T15:03:50;14.20;55.80
73777;DHT22;62088;50.240;2.696;2023-04-25T15:06:18;14.40;57.10
73777;DHT22;62088;50.240;2.696;2023-04-25T15:08:45;14.50;56.90
73777;DHT22;62088;50.240;2.696;2023-04-25T15:11:12;14.70;56.50
73777;DHT22;62088;50.240;2.696;2023-04-25T15:13:39;14.90;56.20
73777;DHT22;62088;50.240;2.696;2023-04-25T15:16:06;15.00;55.90
73777;DHT22;62088;50.240;2.696;2023-04-25T15:18:34;15.20;55.10
73777;DHT22;62088;50.240;2.696;2023-04-25T15:21:01;15.30;54.60
73777;DHT22;62088;50.240;2.696;2023-04-25T15:23:28;15.40;54.00
73777;DHT22;62088;50.240;2.696;2023-04-25T15:25:55;15.50;53.50
73777;DHT22;62088;50.240;2.696;2023-04-25T15:28:22;15.60;53.10
73777;DHT22;62088;50.240;2.696;2023-04-25T15:30:49;15.70;52.80
73777;DHT22;62088;50.240;2.696;2023-04-25T15:33:17;15.80;52.70
73777;DHT22;62088;50.240;2.696;2023-04-25T15:35:44;15.70;52.40
73777;DHT22;62088;50.240;2.696;2023-04-25T15:38:11;15.70;52.10
73777;DHT22;62088;50.240;2.696;2023-04-25T15:40:38;15.60;52.20
73777;DHT22;62088;50.240;2.696;2023-04-25T15:43:06;15.50;52.60
73777;DHT22;62088;50.240;2.696;2023-04-25T15:45:36;15.50;52.50
73777;DHT22;62088;50.240;2.696;2023-04-25T15:48:04;15.40;52.60
73777;DHT22;62088;50.240;2.696;2023-04-25T15:50:31;15.20;52.50
73777;DHT22;62088;50.240;2.696;2023-04-25T15:52:58;15.10;52.60
73777;DHT22;62088;50.240;2.696;2023-04-25T15:55:25;15.00;52.80
73777;DHT22;62088;50.240;2.696;2023-04-25T15:57:53;15.00;52.90
73777;DHT22;62088;50.240;2.696;2023-04-25T16:00:20;14.90;52.60
73777;DHT22;62088;50.240;2.696;2023-04-25T16:02:48;14.80;52.80